sensor_id;sensor_type;location;lat;lon;timestamp;temperature;humidity
22676;DHT22;12521;43.310;21.876;2023-08-06T00:00:08;20.4;96.0
22676;DHT22;12521;43.310;21.876;2023-08-06T00:04:46;20.4;96.0
22676;DHT22;12521;43.310;21.876;2023-08-06T00:09:23;20.5;96.0
22676;DHT22;12521;43.310;21.876;2023-08-06T00:13:59;20.5;96.0
22676;DHT22;12521;43.310;21.876;2023-08-06T00:18:36;20.5;96.0
22676;DHT22;12521;43.310;21.876;2023-08-06T00:23:14;20.5;96.0
22676;DHT22;12521;43.310;21.876;2023-08-06T00:27:50;20.5;96.0
22676;DHT22;12521;43.310;21.876;2023-08-06T00:32:27;20.5;96.0
22676;DHT22;12521;43.310;21.876;2023-08-06T00:37:03;20.5;96.0
22676;DHT22;12521;43.310;21.876;2023-08-06T00:41:40;20.5;96.0
22676;DHT22;12521;43.310;21.876;2023-08-06T00:46:17;20.5;96.0
22676;DHT22;12521;43.310;21.876;2023-08-06T00:50:55;20.5;96.0
22676;DHT22;12521;43.310;21.876;2023-08-06T00:55:33;20.5;96.0
22676;DHT22;12521;43.310;21.876;2023-08-06T01:00:12;20.5;96.0
22676;DHT22;12521;43.310;21.876;2023-08-06T01:04:50;20.5;96.0
22676;DHT22;12521;43.310;21.876;2023-08-06T01:09:42;20.5;96.0
22676;DHT22;12521;43.310;21.876;2023-08-06T01:15:23;20.5;96.0
22676;DHT22;12521;43.310;21.876;2023-08-06T01:20:28;20.5;96.0
22676;DHT22;12521;43.310;21.876;2023-08-06T01:25:08;20.5;96.0
22676;DHT22;12521;43.310;21.876;2023-08-06T01:29:57;20.5;96.0
22676;DHT22;12521;43.310;21.876;2023-08-06T01:35:02;20.5;96.0
22676;DHT22;12521;43.310;21.876;2023-08-06T01:39:52;20.4;96.0
22676;DHT22;12521;43.310;21.876;2023-08-06T01:44:29;20.4;96.0
22676;DHT22;12521;43.310;21.876;2023-08-06T01:49:06;20.3;96.0
22676;DHT22;12521;43.310;21.876;2023-08-06T01:53:42;20.3;96.0
22676;DHT22;12521;43.310;21.876;2023-08-06T01:58:19;20.2;96.0
22676;DHT22;12521;43.310;21.876;2023-08-06T02:02:55;20.2;96.0
22676;DHT22;12521;43.310;21.876;2023-08-06T02:07:31;20.1;96.0
22676;DHT22;12521;43.310;21.876;2023-08-06T02:12:08;20.1;96.0
22676;DHT22;12521;43.310;21.876;2023-08-06T02:16:44;20.1;96.0
22676;DHT22;12521;43.310;21.876;2023-08-06T02:21:20;20.1;96.0
22676;DHT22;12521;43.310;21.876;2023-08-06T02:25:58;20.1;96.0
22676;DHT22;12521;43.310;21.876;2023-08-06T02:30:49;20.1;96.0
22676;DHT22;12521;43.310;21.876;2023-08-06T02:35:27;20.1;96.0
22676;DHT22;12521;43.310;21.876;2023-08-06T02:40:04;20.2;96.0
22676;DHT22;12521;43.310;21.876;2023-08-06T02:44:44;20.2;96.0
22676;DHT22;12521;43.310;21.876;2023-08-06T02:49:21;20.2;96.0
22676;DHT22;12521;43.310;21.876;2023-08-06T02:53:57;20.2;96.0
22676;DHT22;12521;43.310;21.876;2023-08-06T02:58:33;20.2;96.0
22676;DHT22;12521;43.310;21.876;2023-08-06T03:03:10;20.2;96.0
22676;DHT22;12521;43.310;21.876;2023-08-06T03:07:46;20.1;96.0
22676;DHT22;12521;43.310;21.876;2023-08-06T03:12:23;20.1;96.0
22676;DHT22;12521;43.310;21.876;2023-08-06T03:16:59;20.1;96.0
22676;DHT22;12521;43.310;21.876;2023-08-06T03:21:35;20.1;96.0
22676;DHT22;12521;43.310;21.876;2023-08-06T03:26:11;20.1;96.0
22676;DHT22;12521;43.310;21.876;2023-08-06T03:30:48;20.1;96.0
22676;DHT22;12521;43.310;21.876;2023-08-06T03:35:35;20.1;96.0
22676;DHT22;12521;43.310;21.876;2023-08-06T03:40:11;20.0;96.0
22676;DHT22;12521;43.310;21.876;2023-08-06T03:44:48;20.0;96.0
22676;DHT22;12521;43.310;21.876;2023-08-06T03:49:24;19.9;96.0
22676;DHT22;12521;43.310;21.876;2023-08-06T03:54:01;19.9;96.0
22676;DHT22;12521;43.310;21.876;2023-08-06T03:58:38;19.9;96.0
22676;DHT22;12521;43.310;21.876;2023-08-06T04:03:15;19.9;96.0
22676;DHT22;12521;43.310;21.876;2023-08-06T04:07:52;19.9;96.0
22676;DHT22;12521;43.310;21.876;2023-08-06T04:12:29;19.9;96.0
22676;DHT22;12521;43.310;21.876;2023-08-06T04:17:07;20.0;96.0
22676;DHT22;12521;43.310;21.876;2023-08-06T04:21:44;20.0;96.0
22676;DHT22;12521;43.310;21.876;2023-08-06T04:26:20;20.0;96.0
22676;DHT22;12521;43.310;21.876;2023-08-06T04:30:56;20.0;96.0
22676;DHT22;12521;43.310;21.876;2023-08-06T04:35:35;20.0;96.0
22676;DHT22;12521;43.310;21.876;2023-08-06T04:40:11;20.0;96.0
22676;DHT22;12521;43.310;21.876;2023-08-06T04:44:47;20.0;96.0
22676;DHT22;12521;43.310;21.876;2023-08-06T04:49:25;20.1;96.0
22676;DHT22;12521;43.310;21.876;2023-08-06T05:07:07;20.1;96.0
22676;DHT22;12521;43.310;21.876;2023-08-06T05:16:41;20.2;96.0
22676;DHT22;12521;43.310;21.876;2023-08-06T05:21:17;20.2;96.0
22676;DHT22;12521;43.310;21.876;2023-08-06T05:25:53;20.2;96.0
22676;DHT22;12521;43.310;21.876;2023-08-06T05:30:32;20.2;96.0
22676;DHT22;12521;43.310;21.876;2023-08-06T05:36:06;20.2;96.0
22676;DHT22;12521;43.310;21.876;2023-08-06T05:40:43;20.4;96.0
22676;DHT22;12521;43.310;21.876;2023-08-06T05:45:21;20.4;96.0
22676;DHT22;12521;43.310;21.876;2023-08-06T05:49:58;20.7;96.0
22676;DHT22;12521;43.310;21.876;2023-08-06T05:54:34;20.7;96.0
22676;DHT22;12521;43.310;21.876;2023-08-06T05:59:11;20.9;96.0
22676;DHT22;12521;43.310;21.876;2023-08-06T06:03:48;20.9;96.0
22676;DHT22;12521;43.310;21.876;2023-08-06T06:08:25;21.1;96.0
22676;DHT22;12521;43.310;21.876;2023-08-06T06:13:02;21.1;96.0
22676;DHT22;12521;43.310;21.876;2023-08-06T06:17:39;21.2;96.0
22676;DHT22;12521;43.310;21.876;2023-08-06T06:22:16;21.2;96.0
22676;DHT22;12521;43.310;21.876;2023-08-06T06:26:52;21.4;96.0
22676;DHT22;12521;43.310;21.876;2023-08-06T06:31:29;21.4;96.0
22676;DHT22;12521;43.310;21.876;2023-08-06T06:36:06;21.4;96.0
22676;DHT22;12521;43.310;21.876;2023-08-06T06:40:44;21.5;96.0
22676;DHT22;12521;43.310;21.876;2023-08-06T06:45:31;21.5;96.0
22676;DHT22;12521;43.310;21.876;2023-08-06T06:50:09;21.6;96.0
22676;DHT22;12521;43.310;21.876;2023-08-06T06:54:46;21.6;96.0
22676;DHT22;12521;43.310;21.876;2023-08-06T06:59:23;21.8;96.0
22676;DHT22;12521;43.310;21.876;2023-08-06T07:03:59;21.8;96.0
22676;DHT22;12521;43.310;21.876;2023-08-06T07:08:36;22.0;96.0
22676;DHT22;12521;43.310;21.876;2023-08-06T07:13:12;22.0;96.0
22676;DHT22;12521;43.310;21.876;2023-08-06T07:17:49;22.2;96.0
22676;DHT22;12521;43.310;21.876;2023-08-06T07:22:25;22.2;96.0
22676;DHT22;12521;43.310;21.876;2023-08-06T07:27:01;22.4;96.0
22676;DHT22;12521;43.310;21.876;2023-08-06T07:31:38;22.4;96.0
22676;DHT22;12521;43.310;21.876;2023-08-06T07:36:15;22.4;96.0
22676;DHT22;12521;43.310;21.876;2023-08-06T07:40:51;22.6;96.0
22676;DHT22;12521;43.310;21.876;2023-08-06T07:45:27;22.6;96.0
22676;DHT22;12521;43.310;21.876;2023-08-06T07:50:09;22.8;96.0
22676;DHT22;12521;43.310;21.876;2023-08-06T07:54:47;22.8;96.0
22676;DHT22;12521;43.310;21.876;2023-08-06T07:59:23;23.0;96.0
22676;DHT22;12521;43.310;21.876;2023-08-06T08:04:00;23.0;96.0
22676;DHT22;12521;43.310;21.876;2023-08-06T08:08:36;23.2;96.0
22676;DHT22;12521;43.310;21.876;2023-08-06T08:13:13;23.2;96.0
22676;DHT22;12521;43.310;21.876;2023-08-06T08:17:49;23.3;96.0
22676;DHT22;12521;43.310;21.876;2023-08-06T08:22:26;23.3;96.0
22676;DHT22;12521;43.310;21.876;2023-08-06T08:27:02;23.4;96.0
22676;DHT22;12521;43.310;21.876;2023-08-06T08:31:40;23.4;96.0
22676;DHT22;12521;43.310;21.876;2023-08-06T08:36:16;23.4;96.0
22676;DHT22;12521;43.310;21.876;2023-08-06T08:40:54;23.6;96.0
22676;DHT22;12521;43.310;21.876;2023-08-06T08:45:39;23.6;96.0
22676;DHT22;12521;43.310;21.876;2023-08-06T08:50:21;23.8;96.0
22676;DHT22;12521;43.310;21.876;2023-08-06T08:55:01;23.8;96.0
22676;DHT22;12521;43.310;21.876;2023-08-06T08:59:38;24.0;96.0
22676;DHT22;12521;43.310;21.876;2023-08-06T09:04:14;24.0;96.0
22676;DHT22;12521;43.310;21.876;2023-08-06T09:09:01;24.3;96.0
22676;DHT22;12521;43.310;21.876;2023-08-06T09:13:57;24.3;96.0
22676;DHT22;12521;43.310;21.876;2023-08-06T09:18:39;24.6;96.0
22676;DHT22;12521;43.310;21.876;2023-08-06T09:23:16;24.6;96.0
22676;DHT22;12521;43.310;21.876;2023-08-06T09:27:52;24.8;96.0
22676;DHT22;12521;43.310;21.876;2023-08-06T09:32:45;24.8;96.0
22676;DHT22;12521;43.310;21.876;2023-08-06T09:37:25;25.0;96.0
22676;DHT22;12521;43.310;21.876;2023-08-06T09:42:15;25.0;96.0
22676;DHT22;12521;43.310;21.876;2023-08-06T09:46:53;25.2;96.0
22676;DHT22;12521;43.310;21.876;2023-08-06T09:51:38;25.2;96.0
22676;DHT22;12521;43.310;21.876;2023-08-06T09:56:17;25.2;96.0
22676;DHT22;12521;43.310;21.876;2023-08-06T10:00:56;25.7;96.0
22676;DHT22;12521;43.310;21.876;2023-08-06T10:05:34;25.7;96.0
22676;DHT22;12521;43.310;21.876;2023-08-06T10:10:13;26.2;96.0
22676;DHT22;12521;43.310;21.876;2023-08-06T10:14:50;26.2;96.0
22676;DHT22;12521;43.310;21.876;2023-08-06T10:19:36;26.3;96.0
22676;DHT22;12521;43.310;21.876;2023-08-06T10:24:14;26.3;96.0
22676;DHT22;12521;43.310;21.876;2023-08-06T10:28:50;26.4;96.0
22676;DHT22;12521;43.310;21.876;2023-08-06T10:33:42;26.4;96.0
22676;DHT22;12521;43.310;21.876;2023-08-06T10:38:25;25.8;96.0
22676;DHT22;12521;43.310;21.876;2023-08-06T10:43:04;25.8;96.0
22676;DHT22;12521;43.310;21.876;2023-08-06T10:47:44;25.3;96.0
22676;DHT22;12521;43.310;21.876;2023-08-06T10:52:23;25.3;96.0
22676;DHT22;12521;43.310;21.876;2023-08-06T10:56:59;24.9;96.0
22676;DHT22;12521;43.310;21.876;2023-08-06T11:01:37;24.9;96.0
22676;DHT22;12521;43.310;21.876;2023-08-06T11:06:19;24.9;96.0
22676;DHT22;12521;43.310;21.876;2023-08-06T11:11:10;24.5;96.0
22676;DHT22;12521;43.310;21.876;2023-08-06T11:15:52;24.5;96.0
22676;DHT22;12521;43.310;21.876;2023-08-06T11:20:29;25.0;96.0
22676;DHT22;12521;43.310;21.876;2023-08-06T11:25:07;25.0;96.0
22676;DHT22;12521;43.310;21.876;2023-08-06T11:29:44;25.5;96.0
22676;DHT22;12521;43.310;21.876;2023-08-06T11:34:22;25.5;96.0
22676;DHT22;12521;43.310;21.876;2023-08-06T11:38:59;26.3;96.0
22676;DHT22;12521;43.310;21.876;2023-08-06T11:43:39;26.3;96.0
22676;DHT22;12521;43.310;21.876;2023-08-06T11:48:16;27.1;96.0
22676;DHT22;12521;43.310;21.876;2023-08-06T11:52:57;27.1;96.0
22676;DHT22;12521;43.310;21.876;2023-08-06T11:57:38;27.4;96.0
22676;DHT22;12521;43.310;21.876;2023-08-06T12:02:21;27.4;96.0
22676;DHT22;12521;43.310;21.876;2023-08-06T12:07:05;27.8;96.0
22676;DHT22;12521;43.310;21.876;2023-08-06T12:11:42;27.8;96.0
22676;DHT22;12521;43.310;21.876;2023-08-06T12:16:19;27.8;96.0
22676;DHT22;12521;43.310;21.876;2023-08-06T12:20:56;27.4;96.0
22676;DHT22;12521;43.310;21.876;2023-08-06T12:25:33;27.4;96.0
22676;DHT22;12521;43.310;21.876;2023-08-06T12:30:12;26.9;96.0
22676;DHT22;12521;43.310;21.876;2023-08-06T12:34:49;26.9;96.0
22676;DHT22;12521;43.310;21.876;2023-08-06T12:39:26;26.8;96.0
22676;DHT22;12521;43.310;21.876;2023-08-06T12:44:02;26.8;96.0
22676;DHT22;12521;43.310;21.876;2023-08-06T12:48:39;26.8;96.0
22676;DHT22;12521;43.310;21.876;2023-08-06T12:53:15;26.8;96.0
22676;DHT22;12521;43.310;21.876;2023-08-06T12:57:51;26.8;96.0
22676;DHT22;12521;43.310;21.876;2023-08-06T13:02:27;26.8;96.0
22676;DHT22;12521;43.310;21.876;2023-08-06T13:07:03;26.9;96.0
22676;DHT22;12521;43.310;21.876;2023-08-06T13:11:40;26.9;96.0
22676;DHT22;12521;43.310;21.876;2023-08-06T13:16:18;26.9;96.0
22676;DHT22;12521;43.310;21.876;2023-08-06T13:20:55;28.0;96.0
22676;DHT22;12521;43.310;21.876;2023-08-06T13:25:31;28.0;96.0
22676;DHT22;12521;43.310;21.876;2023-08-06T13:30:10;29.0;96.0
22676;DHT22;12521;43.310;21.876;2023-08-06T13:34:47;29.0;96.0
22676;DHT22;12521;43.310;21.876;2023-08-06T13:39:23;29.3;96.0
22676;DHT22;12521;43.310;21.876;2023-08-06T13:44:00;29.3;96.0
22676;DHT22;12521;43.310;21.876;2023-08-06T13:48:36;29.6;96.0
22676;DHT22;12521;43.310;21.876;2023-08-06T13:53:12;29.6;96.0
22676;DHT22;12521;43.310;21.876;2023-08-06T13:57:49;28.8;96.0
22676;DHT22;12521;43.310;21.876;2023-08-06T14:02:25;28.8;96.0
22676;DHT22;12521;43.310;21.876;2023-08-06T14:07:02;27.9;96.0
22676;DHT22;12521;43.310;21.876;2023-08-06T14:11:39;27.9;96.0
22676;DHT22;12521;43.310;21.876;2023-08-06T14:16:16;27.9;96.0
22676;DHT22;12521;43.310;21.876;2023-08-06T14:20:53;27.3;96.0
22676;DHT22;12521;43.310;21.876;2023-08-06T14:25:29;27.3;96.0
22676;DHT22;12521;43.310;21.876;2023-08-06T14:30:08;26.7;96.0
22676;DHT22;12521;43.310;21.876;2023-08-06T14:34:47;26.7;96.0
22676;DHT22;12521;43.310;21.876;2023-08-06T14:39:24;26.0;96.0
22676;DHT22;12521;43.310;21.876;2023-08-06T14:44:00;26.0;96.0
22676;DHT22;12521;43.310;21.876;2023-08-06T14:48:37;25.4;96.0
22676;DHT22;12521;43.310;21.876;2023-08-06T14:53:13;25.4;96.0
22676;DHT22;12521;43.310;21.876;2023-08-06T14:57:50;25.4;96.0
22676;DHT22;12521;43.310;21.876;2023-08-06T15:02:29;25.4;96.0
22676;DHT22;12521;43.310;21.876;2023-08-06T15:07:06;25.4;96.0
22676;DHT22;12521;43.310;21.876;2023-08-06T15:11:42;25.4;96.0
22676;DHT22;12521;43.310;21.876;2023-08-06T15:16:19;25.4;96.0
22676;DHT22;12521;43.310;21.876;2023-08-06T15:20:56;23.9;96.0
22676;DHT22;12521;43.310;21.876;2023-08-06T15:25:32;23.9;96.0
22676;DHT22;12521;43.310;21.876;2023-08-06T15:30:10;22.4;96.0
22676;DHT22;12521;43.310;21.876;2023-08-06T15:34:47;22.4;96.0
22676;DHT22;12521;43.310;21.876;2023-08-06T15:39:23;21.6;96.0
22676;DHT22;12521;43.310;21.876;2023-08-06T15:43:59;21.6;96.0
22676;DHT22;12521;43.310;21.876;2023-08-06T15:48:35;20.8;96.0
22676;DHT22;12521;43.310;21.876;2023-08-06T15:53:12;20.8;96.0
22676;DHT22;12521;43.310;21.876;2023-08-06T15:57:48;20.8;96.0
22676;DHT22;12521;43.310;21.876;2023-08-06T16:02:24;20.8;96.0
22676;DHT22;12521;43.310;21.876;2023-08-06T16:07:01;20.9;96.0
22676;DHT22;12521;43.310;21.876;2023-08-06T16:11:39;20.9;96.0
22676;DHT22;12521;43.310;21.876;2023-08-06T16:16:17;20.9;96.0
22676;DHT22;12521;43.310;21.876;2023-08-06T16:20:53;21.2;96.0
22676;DHT22;12521;43.310;21.876;2023-08-06T16:25:29;21.2;96.0
22676;DHT22;12521;43.310;21.876;2023-08-06T16:30:07;21.5;96.0
22676;DHT22;12521;43.310;21.876;2023-08-06T16:34:46;21.5;96.0
22676;DHT22;12521;43.310;21.876;2023-08-06T16:39:22;21.6;96.0
22676;DHT22;12521;43.310;21.876;2023-08-06T16:43:59;21.6;96.0
22676;DHT22;12521;43.310;21.876;2023-08-06T16:48:35;21.6;96.0
22676;DHT22;12521;43.310;21.876;2023-08-06T16:53:12;21.6;96.0
22676;DHT22;12521;43.310;21.876;2023-08-06T16:57:48;21.6;96.0
22676;DHT22;12521;43.310;21.876;2023-08-06T17:02:25;21.6;96.0
22676;DHT22;12521;43.310;21.876;2023-08-06T17:07:01;21.7;96.0
22676;DHT22;12521;43.310;21.876;2023-08-06T17:11:39;21.7;96.0
22676;DHT22;12521;43.310;21.876;2023-08-06T17:16:17;21.7;96.0
22676;DHT22;12521;43.310;21.876;2023-08-06T17:20:54;21.5;96.0
22676;DHT22;12521;43.310;21.876;2023-08-06T17:25:31;21.5;96.0
22676;DHT22;12521;43.310;21.876;2023-08-06T17:30:09;21.3;96.0
22676;DHT22;12521;43.310;21.876;2023-08-06T17:34:46;21.3;96.0
22676;DHT22;12521;43.310;21.876;2023-08-06T17:39:23;20.4;96.0
22676;DHT22;12521;43.310;21.876;2023-08-06T17:44:00;20.4;96.0
22676;DHT22;12521;43.310;21.876;2023-08-06T17:48:36;19.5;96.0
22676;DHT22;12521;43.310;21.876;2023-08-06T17:53:13;19.5;96.0
22676;DHT22;12521;43.310;21.876;2023-08-06T17:57:49;19.2;96.0
22676;DHT22;12521;43.310;21.876;2023-08-06T18:02:26;19.2;96.0
22676;DHT22;12521;43.310;21.876;2023-08-06T18:07:02;18.9;96.0
22676;DHT22;12521;43.310;21.876;2023-08-06T18:11:40;18.9;96.0
22676;DHT22;12521;43.310;21.876;2023-08-06T18:16:17;18.9;96.0
22676;DHT22;12521;43.310;21.876;2023-08-06T18:20:53;18.9;96.0
22676;DHT22;12521;43.310;21.876;2023-08-06T18:25:29;18.9;96.0
22676;DHT22;12521;43.310;21.876;2023-08-06T18:30:07;18.9;96.0
22676;DHT22;12521;43.310;21.876;2023-08-06T18:34:46;18.9;96.0
22676;DHT22;12521;43.310;21.876;2023-08-06T18:39:23;18.9;96.0
22676;DHT22;12521;43.310;21.876;2023-08-06T18:43:59;18.9;96.0
22676;DHT22;12521;43.310;21.876;2023-08-06T18:48:36;18.9;96.0
22676;DHT22;12521;43.310;21.876;2023-08-06T18:53:12;18.9;96.0
22676;DHT22;12521;43.310;21.876;2023-08-06T18:57:49;19.1;96.0
22676;DHT22;12521;43.310;21.876;2023-08-06T19:02:25;19.1;96.0
22676;DHT22;12521;43.310;21.876;2023-08-06T19:07:03;19.3;96.0
22676;DHT22;12521;43.310;21.876;2023-08-06T19:11:40;19.3;96.0
22676;DHT22;12521;43.310;21.876;2023-08-06T19:16:17;19.3;96.0
22676;DHT22;12521;43.310;21.876;2023-08-06T19:20:55;19.3;96.0
22676;DHT22;12521;43.310;21.876;2023-08-06T19:25:40;19.3;96.0
22676;DHT22;12521;43.310;21.876;2023-08-06T19:30:18;19.3;96.0
22676;DHT22;12521;43.310;21.876;2023-08-06T19:34:55;19.3;96.0
22676;DHT22;12521;43.310;21.876;2023-08-06T19:39:31;19.4;96.0
22676;DHT22;12521;43.310;21.876;2023-08-06T19:44:08;19.4;96.0
22676;DHT22;12521;43.310;21.876;2023-08-06T19:48:44;19.4;96.0
22676;DHT22;12521;43.310;21.876;2023-08-06T19:53:21;19.4;96.0
22676;DHT22;12521;43.310;21.876;2023-08-06T19:57:58;19.4;96.0
22676;DHT22;12521;43.310;21.876;2023-08-06T20:02:35;19.4;96.0
22676;DHT22;12521;43.310;21.876;2023-08-06T20:07:12;19.4;96.0
22676;DHT22;12521;43.310;21.876;2023-08-06T20:11:49;19.4;96.0
22676;DHT22;12521;43.310;21.876;2023-08-06T20:16:25;19.4;96.0
22676;DHT22;12521;43.310;21.876;2023-08-06T20:21:02;19.4;96.0
22676;DHT22;12521;43.310;21.876;2023-08-06T20:25:41;19.4;96.0
22676;DHT22;12521;43.310;21.876;2023-08-06T20:30:17;19.5;96.0
22676;DHT22;12521;43.310;21.876;2023-08-06T20:34:54;19.5;96.0
22676;DHT22;12521;43.310;21.876;2023-08-06T20:39:31;19.4;96.0
22676;DHT22;12521;43.310;21.876;2023-08-06T20:44:07;19.4;96.0
22676;DHT22;12521;43.310;21.876;2023-08-06T20:48:43;19.4;96.0
22676;DHT22;12521;43.310;21.876;2023-08-06T20:53:19;19.4;96.0
22676;DHT22;12521;43.310;21.876;2023-08-06T20:57:55;19.4;96.0
22676;DHT22;12521;43.310;21.876;2023-08-06T21:02:31;19.4;96.0
22676;DHT22;12521;43.310;21.876;2023-08-06T21:07:08;19.5;96.0
22676;DHT22;12521;43.310;21.876;2023-08-06T21:11:44;19.5;96.0
22676;DHT22;12521;43.310;21.876;2023-08-06T21:16:20;19.5;96.0
22676;DHT22;12521;43.310;21.876;2023-08-06T21:20:58;19.5;96.0
22676;DHT22;12521;43.310;21.876;2023-08-06T21:25:37;19.5;96.0
22676;DHT22;12521;43.310;21.876;2023-08-06T21:30:13;19.5;96.0
22676;DHT22;12521;43.310;21.876;2023-08-06T21:34:50;19.5;96.0
22676;DHT22;12521;43.310;21.876;2023-08-06T21:39:28;19.4;96.0
22676;DHT22;12521;43.310;21.876;2023-08-06T21:44:05;19.4;96.0
22676;DHT22;12521;43.310;21.876;2023-08-06T21:48:44;19.4;96.0
22676;DHT22;12521;43.310;21.876;2023-08-06T21:53:25;19.4;96.0
22676;DHT22;12521;43.310;21.876;2023-08-06T21:58:01;19.4;96.0
22676;DHT22;12521;43.310;21.876;2023-08-06T22:02:38;19.4;96.0
22676;DHT22;12521;43.310;21.876;2023-08-06T22:07:14;19.3;96.0
22676;DHT22;12521;43.310;21.876;2023-08-06T22:11:51;19.3;96.0
22676;DHT22;12521;43.310;21.876;2023-08-06T22:16:27;19.3;96.0
22676;DHT22;12521;43.310;21.876;2023-08-06T22:21:04;19.2;96.0
22676;DHT22;12521;43.310;21.876;2023-08-06T22:25:40;19.2;96.0
22676;DHT22;12521;43.310;21.876;2023-08-06T22:30:17;19.1;96.0
22676;DHT22;12521;43.310;21.876;2023-08-06T22:34:54;19.1;96.0
22676;DHT22;12521;43.310;21.876;2023-08-06T22:39:30;19.0;96.0
22676;DHT22;12521;43.310;21.876;2023-08-06T22:44:07;19.0;96.0
22676;DHT22;12521;43.310;21.876;2023-08-06T22:48:43;18.9;96.0
22676;DHT22;12521;43.310;21.876;2023-08-06T22:53:19;18.9;96.0
22676;DHT22;12521;43.310;21.876;2023-08-06T22:57:56;18.8;96.0
22676;DHT22;12521;43.310;21.876;2023-08-06T23:02:32;18.8;96.0
22676;DHT22;12521;43.310;21.876;2023-08-06T23:07:09;18.7;96.0
22676;DHT22;12521;43.310;21.876;2023-08-06T23:11:45;18.7;96.0
22676;DHT22;12521;43.310;21.876;2023-08-06T23:16:22;18.7;96.0
22676;DHT22;12521;43.310;21.876;2023-08-06T23:20:58;18.5;96.0
22676;DHT22;12521;43.310;21.876;2023-08-06T23:25:35;18.5;96.0
22676;DHT22;12521;43.310;21.876;2023-08-06T23:30:12;18.4;96.0
22676;DHT22;12521;43.310;21.876;2023-08-06T23:34:49;18.4;96.0
22676;DHT22;12521;43.310;21.876;2023-08-06T23:39:26;18.3;96.0
22676;DHT22;12521;43.310;21.876;2023-08-06T23:44:02;18.3;96.0
22676;DHT22;12521;43.310;21.876;2023-08-06T23:48:39;18.2;96.0
22676;DHT22;12521;43.310;21.876;2023-08-06T23:53:15;18.2;96.0
22676;DHT22;12521;43.310;21.876;2023-08-06T23:57:52;18.1;96.0
